sensor_id;sensor_type;location;lat;lon;timestamp;P1;durP1;ratioP1;P2;durP2;ratioP2
18568;SDS011;14780;48.316;-1.050;2024-03-22T00:02:27;3.47;;;2.63;;
18568;SDS011;14780;48.316;-1.050;2024-03-22T00:05:11;3.13;;;2.45;;
18568;SDS011;14780;48.316;-1.050;2024-03-22T00:07:56;5.07;;;2.80;;
18568;SDS011;14780;48.316;-1.050;2024-03-22T00:10:40;3.47;;;2.55;;
18568;SDS011;14780;48.316;-1.050;2024-03-22T00:13:25;3.63;;;2.63;;
18568;SDS011;14780;48.316;-1.050;2024-03-22T00:16:10;3.73;;;2.60;;
18568;SDS011;14780;48.316;-1.050;2024-03-22T00:18:54;3.22;;;2.35;;
18568;SDS011;14780;48.316;-1.050;2024-03-22T00:21:39;4.50;;;2.40;;
18568;SDS011;14780;48.316;-1.050;2024-03-22T00:24:24;3.17;;;2.30;;
18568;SDS011;14780;48.316;-1.050;2024-03-22T00:27:08;3.22;;;2.25;;
18568;SDS011;14780;48.316;-1.050;2024-03-22T00:29:55;2.72;;;2.20;;
18568;SDS011;14780;48.316;-1.050;2024-03-22T00:32:40;3.20;;;2.50;;
18568;SDS011;14780;48.316;-1.050;2024-03-22T00:35:24;3.75;;;2.38;;
18568;SDS011;14780;48.316;-1.050;2024-03-22T00:38:09;4.00;;;2.70;;
18568;SDS011;14780;48.316;-1.050;2024-03-22T00:40:54;3.13;;;2.33;;
18568;SDS011;14780;48.316;-1.050;2024-03-22T00:43:39;3.30;;;2.22;;
18568;SDS011;14780;48.316;-1.050;2024-03-22T00:50:06;3.55;;;2.20;;
18568;SDS011;14780;48.316;-1.050;2024-03-22T00:52:51;3.45;;;2.05;;
18568;SDS011;14780;48.316;-1.050;2024-03-22T00:55:36;2.95;;;2.20;;
18568;SDS011;14780;48.316;-1.050;2024-03-22T00:58:20;4.28;;;2.28;;
18568;SDS011;14780;48.316;-1.050;2024-03-22T01:01:05;4.18;;;2.20;;
18568;SDS011;14780;48.316;-1.050;2024-03-22T01:03:50;2.88;;;1.90;;
18568;SDS011;14780;48.316;-1.050;2024-03-22T01:06:35;2.92;;;2.05;;
18568;SDS011;14780;48.316;-1.050;2024-03-22T01:09:20;2.83;;;2.00;;
18568;SDS011;14780;48.316;-1.050;2024-03-22T01:12:05;2.33;;;2.00;;
18568;SDS011;14780;48.316;-1.050;2024-03-22T01:14:50;2.55;;;1.90;;
18568;SDS011;14780;48.316;-1.050;2024-03-22T01:17:35;2.53;;;1.97;;
18568;SDS011;14780;48.316;-1.050;2024-03-22T01:20:20;2.30;;;1.90;;
18568;SDS011;14780;48.316;-1.050;2024-03-22T01:23:04;2.15;;;1.80;;
18568;SDS011;14780;48.316;-1.050;2024-03-22T01:25:49;2.47;;;1.73;;
18568;SDS011;14780;48.316;-1.050;2024-03-22T01:28:34;1.80;;;1.70;;
18568;SDS011;14780;48.316;-1.050;2024-03-22T01:31:18;1.88;;;1.73;;
18568;SDS011;14780;48.316;-1.050;2024-03-22T01:34:03;2.00;;;1.77;;
18568;SDS011;14780;48.316;-1.050;2024-03-22T01:36:48;2.53;;;1.88;;
18568;SDS011;14780;48.316;-1.050;2024-03-22T01:39:33;2.83;;;2.00;;
18568;SDS011;14780;48.316;-1.050;2024-03-22T01:42:18;2.00;;;1.80;;
18568;SDS011;14780;48.316;-1.050;2024-03-22T01:45:02;1.80;;;1.70;;
18568;SDS011;14780;48.316;-1.050;2024-03-22T01:47:48;1.70;;;1.60;;
18568;SDS011;14780;48.316;-1.050;2024-03-22T01:50:33;2.30;;;1.90;;
18568;SDS011;14780;48.316;-1.050;2024-03-22T01:53:18;2.97;;;1.92;;
18568;SDS011;14780;48.316;-1.050;2024-03-22T01:56:05;1.85;;;1.55;;
18568;SDS011;14780;48.316;-1.050;2024-03-22T01:58:51;1.42;;;1.33;;
18568;SDS011;14780;48.316;-1.050;2024-03-22T02:01:36;1.75;;;1.63;;
18568;SDS011;14780;48.316;-1.050;2024-03-22T02:04:21;3.88;;;1.70;;
18568;SDS011;14780;48.316;-1.050;2024-03-22T02:07:06;1.75;;;1.58;;
18568;SDS011;14780;48.316;-1.050;2024-03-22T02:09:50;1.55;;;1.45;;
18568;SDS011;14780;48.316;-1.050;2024-03-22T02:12:35;2.08;;;1.70;;
18568;SDS011;14780;48.316;-1.050;2024-03-22T02:15:22;2.25;;;1.50;;
18568;SDS011;14780;48.316;-1.050;2024-03-22T02:18:08;1.55;;;1.45;;
18568;SDS011;14780;48.316;-1.050;2024-03-22T02:20:53;1.50;;;1.40;;
18568;SDS011;14780;48.316;-1.050;2024-03-22T02:23:40;1.85;;;1.52;;
18568;SDS011;14780;48.316;-1.050;2024-03-22T02:26:25;1.90;;;1.55;;
18568;SDS011;14780;48.316;-1.050;2024-03-22T02:29:09;1.40;;;1.30;;
18568;SDS011;14780;48.316;-1.050;2024-03-22T02:31:54;1.40;;;1.30;;
18568;SDS011;14780;48.316;-1.050;2024-03-22T02:34:41;1.73;;;1.50;;
18568;SDS011;14780;48.316;-1.050;2024-03-22T02:37:26;1.55;;;1.35;;
18568;SDS011;14780;48.316;-1.050;2024-03-22T02:40:12;1.40;;;1.30;;
18568;SDS011;14780;48.316;-1.050;2024-03-22T02:42:56;1.50;;;1.40;;
18568;SDS011;14780;48.316;-1.050;2024-03-22T02:45:41;1.30;;;1.20;;
18568;SDS011;14780;48.316;-1.050;2024-03-22T02:48:26;1.45;;;1.35;;
18568;SDS011;14780;48.316;-1.050;2024-03-22T02:51:12;1.60;;;1.40;;
18568;SDS011;14780;48.316;-1.050;2024-03-22T02:53:57;1.30;;;1.20;;
18568;SDS011;14780;48.316;-1.050;2024-03-22T02:56:41;1.47;;;1.37;;
18568;SDS011;14780;48.316;-1.050;2024-03-22T02:59:26;1.67;;;1.42;;
18568;SDS011;14780;48.316;-1.050;2024-03-22T03:02:11;1.50;;;1.40;;
18568;SDS011;14780;48.316;-1.050;2024-03-22T03:04:56;2.05;;;1.50;;
18568;SDS011;14780;48.316;-1.050;2024-03-22T03:07:41;1.17;;;1.10;;
18568;SDS011;14780;48.316;-1.050;2024-03-22T03:10:26;1.70;;;1.27;;
18568;SDS011;14780;48.316;-1.050;2024-03-22T03:13:11;1.80;;;1.40;;
18568;SDS011;14780;48.316;-1.050;2024-03-22T03:15:56;1.40;;;1.30;;
18568;SDS011;14780;48.316;-1.050;2024-03-22T03:18:41;1.55;;;1.40;;
18568;SDS011;14780;48.316;-1.050;2024-03-22T03:21:25;1.30;;;1.25;;
18568;SDS011;14780;48.316;-1.050;2024-03-22T03:24:10;2.13;;;1.30;;
18568;SDS011;14780;48.316;-1.050;2024-03-22T03:26:56;1.40;;;1.30;;
18568;SDS011;14780;48.316;-1.050;2024-03-22T03:29:40;1.48;;;1.30;;
18568;SDS011;14780;48.316;-1.050;2024-03-22T03:32:26;1.77;;;1.30;;
18568;SDS011;14780;48.316;-1.050;2024-03-22T03:35:11;1.50;;;1.40;;
18568;SDS011;14780;48.316;-1.050;2024-03-22T03:37:55;1.48;;;1.30;;
18568;SDS011;14780;48.316;-1.050;2024-03-22T03:40:40;1.30;;;1.20;;
18568;SDS011;14780;48.316;-1.050;2024-03-22T03:43:25;1.23;;;1.13;;
18568;SDS011;14780;48.316;-1.050;2024-03-22T03:46:10;1.20;;;1.10;;
18568;SDS011;14780;48.316;-1.050;2024-03-22T03:48:54;1.40;;;1.15;;
18568;SDS011;14780;48.316;-1.050;2024-03-22T03:51:39;1.27;;;1.17;;
18568;SDS011;14780;48.316;-1.050;2024-03-22T03:54:23;1.50;;;1.20;;
18568;SDS011;14780;48.316;-1.050;2024-03-22T03:57:08;1.15;;;1.05;;
18568;SDS011;14780;48.316;-1.050;2024-03-22T03:59:52;1.08;;;1.02;;
18568;SDS011;14780;48.316;-1.050;2024-03-22T04:02:37;1.67;;;1.10;;
18568;SDS011;14780;48.316;-1.050;2024-03-22T04:05:22;1.00;;;1.00;;
18568;SDS011;14780;48.316;-1.050;2024-03-22T04:08:06;1.20;;;1.10;;
18568;SDS011;14780;48.316;-1.050;2024-03-22T04:10:52;1.17;;;1.08;;
18568;SDS011;14780;48.316;-1.050;2024-03-22T04:13:39;1.05;;;1.00;;
18568;SDS011;14780;48.316;-1.050;2024-03-22T04:16:25;1.10;;;1.05;;
18568;SDS011;14780;48.316;-1.050;2024-03-22T04:19:11;1.10;;;1.10;;
18568;SDS011;14780;48.316;-1.050;2024-03-22T04:21:55;1.10;;;1.10;;
18568;SDS011;14780;48.316;-1.050;2024-03-22T04:24:40;1.02;;;0.93;;
18568;SDS011;14780;48.316;-1.050;2024-03-22T04:27:24;1.27;;;1.17;;
18568;SDS011;14780;48.316;-1.050;2024-03-22T04:30:09;1.20;;;1.02;;
18568;SDS011;14780;48.316;-1.050;2024-03-22T04:32:55;0.90;;;0.90;;
18568;SDS011;14780;48.316;-1.050;2024-03-22T04:35:44;1.20;;;1.10;;
18568;SDS011;14780;48.316;-1.050;2024-03-22T04:38:29;0.85;;;0.85;;
18568;SDS011;14780;48.316;-1.050;2024-03-22T04:41:14;1.33;;;0.90;;
18568;SDS011;14780;48.316;-1.050;2024-03-22T04:43:59;1.00;;;1.00;;
18568;SDS011;14780;48.316;-1.050;2024-03-22T04:46:44;0.90;;;0.90;;
18568;SDS011;14780;48.316;-1.050;2024-03-22T04:49:28;1.40;;;1.30;;
18568;SDS011;14780;48.316;-1.050;2024-03-22T04:52:13;0.82;;;0.82;;
18568;SDS011;14780;48.316;-1.050;2024-03-22T04:54:57;1.20;;;1.10;;
18568;SDS011;14780;48.316;-1.050;2024-03-22T04:57:42;0.90;;;0.90;;
18568;SDS011;14780;48.316;-1.050;2024-03-22T05:00:27;0.82;;;0.82;;
18568;SDS011;14780;48.316;-1.050;2024-03-22T05:03:12;1.13;;;1.00;;
18568;SDS011;14780;48.316;-1.050;2024-03-22T05:05:58;1.13;;;1.02;;
18568;SDS011;14780;48.316;-1.050;2024-03-22T05:08:43;1.20;;;1.10;;
18568;SDS011;14780;48.316;-1.050;2024-03-22T05:11:27;1.23;;;1.10;;
18568;SDS011;14780;48.316;-1.050;2024-03-22T05:14:12;1.00;;;0.90;;
18568;SDS011;14780;48.316;-1.050;2024-03-22T05:16:57;0.90;;;0.90;;
18568;SDS011;14780;48.316;-1.050;2024-03-22T05:19:41;1.20;;;1.10;;
18568;SDS011;14780;48.316;-1.050;2024-03-22T05:22:27;0.82;;;0.82;;
18568;SDS011;14780;48.316;-1.050;2024-03-22T05:25:12;1.00;;;1.00;;
18568;SDS011;14780;48.316;-1.050;2024-03-22T05:27:58;0.88;;;0.88;;
18568;SDS011;14780;48.316;-1.050;2024-03-22T05:30:43;1.13;;;0.95;;
18568;SDS011;14780;48.316;-1.050;2024-03-22T05:33:29;0.77;;;0.77;;
18568;SDS011;14780;48.316;-1.050;2024-03-22T05:36:13;0.80;;;0.80;;
18568;SDS011;14780;48.316;-1.050;2024-03-22T05:38:58;0.80;;;0.80;;
18568;SDS011;14780;48.316;-1.050;2024-03-22T05:41:43;1.15;;;1.08;;
18568;SDS011;14780;48.316;-1.050;2024-03-22T05:44:29;3.85;;;0.90;;
18568;SDS011;14780;48.316;-1.050;2024-03-22T05:47:14;1.20;;;1.10;;
18568;SDS011;14780;48.316;-1.050;2024-03-22T05:49:59;0.73;;;0.73;;
18568;SDS011;14780;48.316;-1.050;2024-03-22T05:52:43;0.80;;;0.80;;
18568;SDS011;14780;48.316;-1.050;2024-03-22T05:55:28;0.85;;;0.85;;
18568;SDS011;14780;48.316;-1.050;2024-03-22T05:58:14;0.80;;;0.73;;
18568;SDS011;14780;48.316;-1.050;2024-03-22T06:00:59;0.80;;;0.80;;
18568;SDS011;14780;48.316;-1.050;2024-03-22T06:03:43;0.90;;;0.90;;
18568;SDS011;14780;48.316;-1.050;2024-03-22T06:06:28;0.90;;;0.90;;
18568;SDS011;14780;48.316;-1.050;2024-03-22T06:09:12;0.80;;;0.80;;
18568;SDS011;14780;48.316;-1.050;2024-03-22T06:12:03;0.73;;;0.73;;
18568;SDS011;14780;48.316;-1.050;2024-03-22T06:14:48;1.08;;;1.00;;
18568;SDS011;14780;48.316;-1.050;2024-03-22T06:17:34;0.90;;;0.90;;
18568;SDS011;14780;48.316;-1.050;2024-03-22T06:20:19;1.00;;;1.00;;
18568;SDS011;14780;48.316;-1.050;2024-03-22T06:23:03;1.08;;;0.98;;
18568;SDS011;14780;48.316;-1.050;2024-03-22T06:25:52;1.00;;;1.00;;
18568;SDS011;14780;48.316;-1.050;2024-03-22T06:28:37;0.80;;;0.80;;
18568;SDS011;14780;48.316;-1.050;2024-03-22T06:31:22;0.80;;;0.80;;
18568;SDS011;14780;48.316;-1.050;2024-03-22T06:34:06;0.90;;;0.90;;
18568;SDS011;14780;48.316;-1.050;2024-03-22T06:36:51;0.70;;;0.70;;
18568;SDS011;14780;48.316;-1.050;2024-03-22T06:39:35;1.05;;;1.05;;
18568;SDS011;14780;48.316;-1.050;2024-03-22T06:42:20;0.90;;;0.90;;
18568;SDS011;14780;48.316;-1.050;2024-03-22T06:45:05;0.90;;;0.70;;
18568;SDS011;14780;48.316;-1.050;2024-03-22T06:47:50;1.80;;;0.80;;
18568;SDS011;14780;48.316;-1.050;2024-03-22T06:50:35;0.80;;;0.80;;
18568;SDS011;14780;48.316;-1.050;2024-03-22T06:53:20;0.98;;;0.98;;
18568;SDS011;14780;48.316;-1.050;2024-03-22T06:56:05;0.85;;;0.85;;
18568;SDS011;14780;48.316;-1.050;2024-03-22T06:58:52;0.90;;;0.90;;
18568;SDS011;14780;48.316;-1.050;2024-03-22T07:01:37;1.10;;;1.00;;
18568;SDS011;14780;48.316;-1.050;2024-03-22T07:04:22;1.17;;;1.10;;
18568;SDS011;14780;48.316;-1.050;2024-03-22T07:07:07;0.70;;;0.70;;
18568;SDS011;14780;48.316;-1.050;2024-03-22T07:09:51;1.20;;;1.10;;
18568;SDS011;14780;48.316;-1.050;2024-03-22T07:12:36;0.80;;;0.77;;
18568;SDS011;14780;48.316;-1.050;2024-03-22T07:15:22;1.50;;;1.23;;
18568;SDS011;14780;48.316;-1.050;2024-03-22T07:18:07;0.88;;;0.88;;
18568;SDS011;14780;48.316;-1.050;2024-03-22T07:20:52;2.05;;;1.20;;
18568;SDS011;14780;48.316;-1.050;2024-03-22T07:23:37;1.13;;;1.03;;
18568;SDS011;14780;48.316;-1.050;2024-03-22T07:26:21;1.20;;;1.02;;
18568;SDS011;14780;48.316;-1.050;2024-03-22T07:29:06;2.67;;;1.30;;
18568;SDS011;14780;48.316;-1.050;2024-03-22T07:31:51;0.80;;;0.80;;
18568;SDS011;14780;48.316;-1.050;2024-03-22T07:34:35;2.07;;;1.27;;
18568;SDS011;14780;48.316;-1.050;2024-03-22T07:37:20;1.08;;;0.95;;
18568;SDS011;14780;48.316;-1.050;2024-03-22T07:40:05;1.23;;;1.13;;
18568;SDS011;14780;48.316;-1.050;2024-03-22T07:42:50;1.83;;;1.30;;
18568;SDS011;14780;48.316;-1.050;2024-03-22T07:45:35;3.05;;;1.38;;
18568;SDS011;14780;48.316;-1.050;2024-03-22T07:48:20;0.90;;;0.90;;
18568;SDS011;14780;48.316;-1.050;2024-03-22T07:51:05;3.33;;;1.38;;
18568;SDS011;14780;48.316;-1.050;2024-03-22T07:53:50;2.30;;;1.40;;
18568;SDS011;14780;48.316;-1.050;2024-03-22T07:56:35;3.60;;;1.40;;
18568;SDS011;14780;48.316;-1.050;2024-03-22T07:59:20;3.38;;;1.30;;
18568;SDS011;14780;48.316;-1.050;2024-03-22T08:02:05;2.88;;;1.30;;
18568;SDS011;14780;48.316;-1.050;2024-03-22T08:04:50;1.40;;;1.20;;
18568;SDS011;14780;48.316;-1.050;2024-03-22T08:07:35;2.88;;;1.45;;
18568;SDS011;14780;48.316;-1.050;2024-03-22T08:10:19;2.20;;;1.50;;
18568;SDS011;14780;48.316;-1.050;2024-03-22T08:13:04;2.42;;;1.67;;
18568;SDS011;14780;48.316;-1.050;2024-03-22T08:15:49;3.83;;;1.85;;
18568;SDS011;14780;48.316;-1.050;2024-03-22T08:18:34;2.17;;;1.50;;
18568;SDS011;14780;48.316;-1.050;2024-03-22T08:21:19;2.72;;;1.70;;
18568;SDS011;14780;48.316;-1.050;2024-03-22T08:24:03;3.00;;;1.23;;
18568;SDS011;14780;48.316;-1.050;2024-03-22T08:26:48;1.83;;;1.42;;
18568;SDS011;14780;48.316;-1.050;2024-03-22T08:29:33;2.55;;;1.60;;
18568;SDS011;14780;48.316;-1.050;2024-03-22T08:32:18;3.10;;;1.70;;
18568;SDS011;14780;48.316;-1.050;2024-03-22T08:35:02;2.55;;;1.70;;
18568;SDS011;14780;48.316;-1.050;2024-03-22T08:37:50;3.47;;;1.75;;
18568;SDS011;14780;48.316;-1.050;2024-03-22T08:40:34;2.92;;;1.83;;
18568;SDS011;14780;48.316;-1.050;2024-03-22T08:43:22;2.83;;;1.60;;
18568;SDS011;14780;48.316;-1.050;2024-03-22T08:46:09;3.03;;;1.75;;
18568;SDS011;14780;48.316;-1.050;2024-03-22T08:48:54;4.13;;;1.80;;
18568;SDS011;14780;48.316;-1.050;2024-03-22T08:51:39;2.88;;;2.10;;
18568;SDS011;14780;48.316;-1.050;2024-03-22T08:54:25;3.88;;;2.20;;
18568;SDS011;14780;48.316;-1.050;2024-03-22T08:57:09;3.60;;;2.30;;
18568;SDS011;14780;48.316;-1.050;2024-03-22T08:59:54;5.18;;;2.58;;
18568;SDS011;14780;48.316;-1.050;2024-03-22T09:02:39;4.05;;;2.72;;
18568;SDS011;14780;48.316;-1.050;2024-03-22T09:05:24;7.10;;;2.60;;
18568;SDS011;14780;48.316;-1.050;2024-03-22T09:08:09;4.15;;;2.65;;
18568;SDS011;14780;48.316;-1.050;2024-03-22T09:10:53;6.72;;;2.97;;
18568;SDS011;14780;48.316;-1.050;2024-03-22T09:13:38;5.60;;;3.00;;
18568;SDS011;14780;48.316;-1.050;2024-03-22T09:16:25;7.88;;;3.03;;
18568;SDS011;14780;48.316;-1.050;2024-03-22T09:19:10;3.47;;;2.72;;
18568;SDS011;14780;48.316;-1.050;2024-03-22T09:21:54;5.93;;;3.20;;
18568;SDS011;14780;48.316;-1.050;2024-03-22T09:24:39;5.68;;;3.22;;
18568;SDS011;14780;48.316;-1.050;2024-03-22T09:27:24;6.75;;;3.20;;
18568;SDS011;14780;48.316;-1.050;2024-03-22T09:30:09;6.63;;;3.28;;
18568;SDS011;14780;48.316;-1.050;2024-03-22T09:32:54;9.23;;;3.70;;
18568;SDS011;14780;48.316;-1.050;2024-03-22T09:35:38;7.90;;;3.80;;
18568;SDS011;14780;48.316;-1.050;2024-03-22T09:38:23;8.82;;;3.50;;
18568;SDS011;14780;48.316;-1.050;2024-03-22T09:41:08;8.93;;;3.70;;
18568;SDS011;14780;48.316;-1.050;2024-03-22T09:43:54;9.57;;;3.15;;
18568;SDS011;14780;48.316;-1.050;2024-03-22T09:46:43;6.77;;;3.40;;
18568;SDS011;14780;48.316;-1.050;2024-03-22T09:49:33;6.88;;;3.65;;
18568;SDS011;14780;48.316;-1.050;2024-03-22T09:52:19;5.75;;;3.30;;
18568;SDS011;14780;48.316;-1.050;2024-03-22T09:55:05;5.82;;;3.58;;
18568;SDS011;14780;48.316;-1.050;2024-03-22T09:57:51;5.75;;;3.38;;
18568;SDS011;14780;48.316;-1.050;2024-03-22T10:00:39;7.63;;;3.35;;
18568;SDS011;14780;48.316;-1.050;2024-03-22T10:03:24;9.27;;;4.05;;
18568;SDS011;14780;48.316;-1.050;2024-03-22T10:06:09;7.07;;;3.70;;
18568;SDS011;14780;48.316;-1.050;2024-03-22T10:08:54;8.32;;;3.65;;
18568;SDS011;14780;48.316;-1.050;2024-03-22T10:11:48;6.03;;;3.20;;
18568;SDS011;14780;48.316;-1.050;2024-03-22T10:14:33;7.75;;;3.67;;
18568;SDS011;14780;48.316;-1.050;2024-03-22T10:17:18;8.30;;;3.83;;
18568;SDS011;14780;48.316;-1.050;2024-03-22T10:20:04;6.07;;;3.78;;
18568;SDS011;14780;48.316;-1.050;2024-03-22T10:22:56;6.40;;;3.70;;
18568;SDS011;14780;48.316;-1.050;2024-03-22T10:25:42;7.50;;;3.45;;
18568;SDS011;14780;48.316;-1.050;2024-03-22T10:28:27;6.50;;;3.83;;
18568;SDS011;14780;48.316;-1.050;2024-03-22T10:31:12;7.93;;;3.75;;
18568;SDS011;14780;48.316;-1.050;2024-03-22T10:33:58;5.85;;;3.40;;
18568;SDS011;14780;48.316;-1.050;2024-03-22T10:36:44;7.95;;;3.80;;
18568;SDS011;14780;48.316;-1.050;2024-03-22T10:39:31;8.00;;;3.70;;
18568;SDS011;14780;48.316;-1.050;2024-03-22T10:42:16;6.07;;;3.60;;
18568;SDS011;14780;48.316;-1.050;2024-03-22T10:45:03;9.07;;;3.70;;
18568;SDS011;14780;48.316;-1.050;2024-03-22T10:47:48;8.85;;;3.75;;
18568;SDS011;14780;48.316;-1.050;2024-03-22T10:50:39;11.60;;;3.70;;
18568;SDS011;14780;48.316;-1.050;2024-03-22T10:53:25;6.57;;;3.28;;
18568;SDS011;14780;48.316;-1.050;2024-03-22T10:56:12;7.07;;;3.47;;
18568;SDS011;14780;48.316;-1.050;2024-03-22T10:59:02;6.23;;;3.40;;
18568;SDS011;14780;48.316;-1.050;2024-03-22T11:01:48;6.25;;;3.22;;
18568;SDS011;14780;48.316;-1.050;2024-03-22T11:04:34;5.63;;;3.08;;
18568;SDS011;14780;48.316;-1.050;2024-03-22T11:07:21;6.03;;;3.35;;
18568;SDS011;14780;48.316;-1.050;2024-03-22T11:10:11;5.60;;;3.22;;
18568;SDS011;14780;48.316;-1.050;2024-03-22T11:13:00;7.72;;;3.20;;
18568;SDS011;14780;48.316;-1.050;2024-03-22T11:15:47;5.60;;;2.85;;
18568;SDS011;14780;48.316;-1.050;2024-03-22T11:18:32;7.57;;;3.55;;
18568;SDS011;14780;48.316;-1.050;2024-03-22T11:21:17;5.60;;;2.90;;
18568;SDS011;14780;48.316;-1.050;2024-03-22T11:24:02;4.95;;;3.20;;
18568;SDS011;14780;48.316;-1.050;2024-03-22T11:26:48;10.48;;;3.60;;
18568;SDS011;14780;48.316;-1.050;2024-03-22T11:29:33;6.20;;;3.30;;
18568;SDS011;14780;48.316;-1.050;2024-03-22T11:32:18;6.25;;;3.25;;
18568;SDS011;14780;48.316;-1.050;2024-03-22T11:35:03;5.60;;;2.83;;
18568;SDS011;14780;48.316;-1.050;2024-03-22T11:37:50;6.47;;;3.00;;
18568;SDS011;14780;48.316;-1.050;2024-03-22T11:40:35;7.78;;;3.00;;
18568;SDS011;14780;48.316;-1.050;2024-03-22T11:43:20;6.18;;;3.15;;
18568;SDS011;14780;48.316;-1.050;2024-03-22T11:46:05;5.43;;;3.00;;
18568;SDS011;14780;48.316;-1.050;2024-03-22T11:48:53;5.20;;;2.80;;
18568;SDS011;14780;48.316;-1.050;2024-03-22T11:51:38;3.90;;;2.78;;
18568;SDS011;14780;48.316;-1.050;2024-03-22T11:54:23;7.32;;;3.03;;
18568;SDS011;14780;48.316;-1.050;2024-03-22T11:57:11;6.03;;;3.05;;
18568;SDS011;14780;48.316;-1.050;2024-03-22T11:59:58;4.20;;;2.65;;
18568;SDS011;14780;48.316;-1.050;2024-03-22T12:02:45;5.43;;;2.90;;
18568;SDS011;14780;48.316;-1.050;2024-03-22T12:05:31;5.53;;;2.92;;
18568;SDS011;14780;48.316;-1.050;2024-03-22T12:08:16;6.22;;;2.90;;
18568;SDS011;14780;48.316;-1.050;2024-03-22T12:11:02;5.20;;;2.70;;
18568;SDS011;14780;48.316;-1.050;2024-03-22T12:13:47;3.58;;;2.70;;
18568;SDS011;14780;48.316;-1.050;2024-03-22T12:16:32;3.33;;;2.50;;
18568;SDS011;14780;48.316;-1.050;2024-03-22T12:19:17;6.73;;;3.00;;
18568;SDS011;14780;48.316;-1.050;2024-03-22T12:22:02;4.95;;;2.92;;
18568;SDS011;14780;48.316;-1.050;2024-03-22T12:24:47;8.83;;;2.97;;
18568;SDS011;14780;48.316;-1.050;2024-03-22T12:27:31;4.75;;;2.65;;
18568;SDS011;14780;48.316;-1.050;2024-03-22T12:30:16;9.32;;;2.70;;
18568;SDS011;14780;48.316;-1.050;2024-03-22T12:33:01;8.13;;;4.30;;
18568;SDS011;14780;48.316;-1.050;2024-03-22T12:35:46;16.13;;;11.13;;
18568;SDS011;14780;48.316;-1.050;2024-03-22T12:38:31;10.70;;;7.72;;
18568;SDS011;14780;48.316;-1.050;2024-03-22T12:41:17;18.95;;;10.75;;
18568;SDS011;14780;48.316;-1.050;2024-03-22T12:44:02;23.67;;;12.75;;
18568;SDS011;14780;48.316;-1.050;2024-03-22T12:46:47;24.85;;;13.68;;
18568;SDS011;14780;48.316;-1.050;2024-03-22T12:49:34;21.20;;;10.90;;
18568;SDS011;14780;48.316;-1.050;2024-03-22T12:52:19;19.85;;;10.38;;
18568;SDS011;14780;48.316;-1.050;2024-03-22T12:55:04;15.88;;;9.98;;
18568;SDS011;14780;48.316;-1.050;2024-03-22T12:57:50;17.95;;;9.02;;
18568;SDS011;14780;48.316;-1.050;2024-03-22T13:00:34;16.15;;;10.50;;
18568;SDS011;14780;48.316;-1.050;2024-03-22T13:03:19;21.95;;;10.43;;
18568;SDS011;14780;48.316;-1.050;2024-03-22T13:06:04;15.05;;;9.23;;
18568;SDS011;14780;48.316;-1.050;2024-03-22T13:08:49;15.90;;;8.98;;
18568;SDS011;14780;48.316;-1.050;2024-03-22T13:11:34;12.93;;;9.30;;
18568;SDS011;14780;48.316;-1.050;2024-03-22T13:14:19;13.47;;;8.83;;
18568;SDS011;14780;48.316;-1.050;2024-03-22T13:17:03;14.68;;;8.80;;
18568;SDS011;14780;48.316;-1.050;2024-03-22T13:19:48;11.77;;;8.05;;
18568;SDS011;14780;48.316;-1.050;2024-03-22T13:22:33;12.82;;;8.05;;
18568;SDS011;14780;48.316;-1.050;2024-03-22T13:25:18;14.95;;;8.80;;
18568;SDS011;14780;48.316;-1.050;2024-03-22T13:28:05;17.52;;;9.25;;
18568;SDS011;14780;48.316;-1.050;2024-03-22T13:30:59;23.02;;;10.02;;
18568;SDS011;14780;48.316;-1.050;2024-03-22T13:33:47;17.02;;;9.45;;
18568;SDS011;14780;48.316;-1.050;2024-03-22T13:36:32;13.07;;;8.37;;
18568;SDS011;14780;48.316;-1.050;2024-03-22T13:39:17;9.95;;;8.02;;
18568;SDS011;14780;48.316;-1.050;2024-03-22T13:42:02;10.70;;;7.80;;
18568;SDS011;14780;48.316;-1.050;2024-03-22T13:44:46;10.07;;;6.72;;
18568;SDS011;14780;48.316;-1.050;2024-03-22T13:47:31;8.23;;;6.22;;
18568;SDS011;14780;48.316;-1.050;2024-03-22T13:50:16;8.07;;;6.15;;
18568;SDS011;14780;48.316;-1.050;2024-03-22T13:53:00;10.75;;;6.40;;
18568;SDS011;14780;48.316;-1.050;2024-03-22T13:55:45;9.20;;;6.27;;
18568;SDS011;14780;48.316;-1.050;2024-03-22T13:58:30;10.23;;;6.28;;
18568;SDS011;14780;48.316;-1.050;2024-03-22T14:01:14;6.88;;;5.15;;
18568;SDS011;14780;48.316;-1.050;2024-03-22T14:04:00;6.82;;;4.60;;
18568;SDS011;14780;48.316;-1.050;2024-03-22T14:06:46;6.18;;;4.30;;
18568;SDS011;14780;48.316;-1.050;2024-03-22T14:09:34;5.53;;;3.95;;
18568;SDS011;14780;48.316;-1.050;2024-03-22T14:12:20;5.45;;;3.92;;
18568;SDS011;14780;48.316;-1.050;2024-03-22T14:15:04;4.88;;;3.80;;
18568;SDS011;14780;48.316;-1.050;2024-03-22T14:17:50;5.70;;;3.80;;
18568;SDS011;14780;48.316;-1.050;2024-03-22T14:20:35;8.75;;;3.95;;
18568;SDS011;14780;48.316;-1.050;2024-03-22T14:23:19;5.38;;;3.85;;
18568;SDS011;14780;48.316;-1.050;2024-03-22T14:26:04;5.03;;;3.67;;
18568;SDS011;14780;48.316;-1.050;2024-03-22T14:28:49;4.30;;;3.30;;
18568;SDS011;14780;48.316;-1.050;2024-03-22T14:31:34;6.60;;;3.50;;
18568;SDS011;14780;48.316;-1.050;2024-03-22T14:34:20;6.05;;;3.45;;
18568;SDS011;14780;48.316;-1.050;2024-03-22T14:37:05;6.72;;;3.50;;
18568;SDS011;14780;48.316;-1.050;2024-03-22T14:39:50;5.15;;;3.13;;
18568;SDS011;14780;48.316;-1.050;2024-03-22T14:42:34;6.80;;;3.88;;
18568;SDS011;14780;48.316;-1.050;2024-03-22T14:45:20;4.45;;;3.42;;
18568;SDS011;14780;48.316;-1.050;2024-03-22T14:48:05;5.72;;;3.70;;
18568;SDS011;14780;48.316;-1.050;2024-03-22T14:50:50;5.50;;;3.33;;
18568;SDS011;14780;48.316;-1.050;2024-03-22T14:53:37;6.32;;;3.20;;
18568;SDS011;14780;48.316;-1.050;2024-03-22T14:56:21;5.63;;;3.42;;
18568;SDS011;14780;48.316;-1.050;2024-03-22T14:59:06;4.88;;;3.55;;
18568;SDS011;14780;48.316;-1.050;2024-03-22T15:01:50;5.97;;;3.38;;
18568;SDS011;14780;48.316;-1.050;2024-03-22T15:04:36;5.03;;;3.27;;
18568;SDS011;14780;48.316;-1.050;2024-03-22T15:07:21;4.82;;;3.40;;
18568;SDS011;14780;48.316;-1.050;2024-03-22T15:10:06;5.05;;;3.38;;
18568;SDS011;14780;48.316;-1.050;2024-03-22T15:12:51;5.00;;;3.40;;
18568;SDS011;14780;48.316;-1.050;2024-03-22T15:15:36;5.70;;;3.17;;
18568;SDS011;14780;48.316;-1.050;2024-03-22T15:18:21;5.07;;;3.35;;
18568;SDS011;14780;48.316;-1.050;2024-03-22T15:21:07;4.25;;;3.15;;
18568;SDS011;14780;48.316;-1.050;2024-03-22T15:23:52;5.90;;;3.45;;
18568;SDS011;14780;48.316;-1.050;2024-03-22T15:26:36;5.53;;;3.13;;
18568;SDS011;14780;48.316;-1.050;2024-03-22T15:29:21;4.83;;;3.23;;
18568;SDS011;14780;48.316;-1.050;2024-03-22T15:32:06;4.03;;;3.13;;
18568;SDS011;14780;48.316;-1.050;2024-03-22T15:34:50;5.10;;;3.37;;
18568;SDS011;14780;48.316;-1.050;2024-03-22T15:37:37;4.50;;;3.17;;
18568;SDS011;14780;48.316;-1.050;2024-03-22T15:40:22;4.63;;;3.17;;
18568;SDS011;14780;48.316;-1.050;2024-03-22T15:43:07;5.07;;;3.38;;
18568;SDS011;14780;48.316;-1.050;2024-03-22T15:45:52;3.87;;;2.90;;
18568;SDS011;14780;48.316;-1.050;2024-03-22T15:48:37;5.85;;;3.47;;
18568;SDS011;14780;48.316;-1.050;2024-03-22T15:51:21;4.88;;;3.28;;
18568;SDS011;14780;48.316;-1.050;2024-03-22T15:54:07;5.03;;;3.00;;
18568;SDS011;14780;48.316;-1.050;2024-03-22T15:56:52;9.13;;;3.95;;
18568;SDS011;14780;48.316;-1.050;2024-03-22T15:59:37;12.00;;;3.77;;
18568;SDS011;14780;48.316;-1.050;2024-03-22T16:02:22;8.48;;;3.60;;
18568;SDS011;14780;48.316;-1.050;2024-03-22T16:05:07;8.10;;;3.70;;
18568;SDS011;14780;48.316;-1.050;2024-03-22T16:07:52;8.00;;;3.70;;
18568;SDS011;14780;48.316;-1.050;2024-03-22T16:10:37;17.38;;;5.15;;
18568;SDS011;14780;48.316;-1.050;2024-03-22T16:13:21;9.43;;;5.63;;
18568;SDS011;14780;48.316;-1.050;2024-03-22T16:16:06;11.98;;;5.20;;
18568;SDS011;14780;48.316;-1.050;2024-03-22T16:18:51;11.00;;;4.60;;
18568;SDS011;14780;48.316;-1.050;2024-03-22T16:21:37;6.00;;;4.53;;
18568;SDS011;14780;48.316;-1.050;2024-03-22T16:24:22;7.75;;;4.80;;